Latest Weather Observations for Bourke

IDN60801

Issued at 12:32 pm EST Tuesday 25 April 2017 (issued every 30 minutes, with the page automatically refreshed every 10 minutes)

About weather observations | Map of weather stations | Latest weather observations for NSW | Other Formats
Station Details ID: 048245 Name: BOURKE AIRPORT AWS Lat: -30.04 Lon: 145.95 Height: 107.3 m
Data from the previous 72 hours. | See also: Recent months at Bourke
Date/Time
EST
Temp
°C
App
Temp
°C
Dew
Point
°C
Rel
Hum
%
Delta-T
°C
Wind Press
QNH
hPa
Press
MSL
hPa
Rain since
9am
mm
Dir  Spd
km/h
Gust
km/h
Spd
kts
Gust
kts
25/12:30pm 19.3 19.2 16.9 86 1.5 WSW 13 20 7 11 1014.0 1013.7 1.6
25/12:00pm 19.9 19.5 17.1 84 1.7 SSW 15 20 8 11 1013.8 1013.4 0.4
25/11:30am 20.4 18.9 16.4 78 2.4 SW 19 28 10 15 1014.4 1014.1 0.0
25/11:00am 21.3 19.8 15.4 69 3.5 SW 17 24 9 13 1015.0 1014.7 0.0
25/10:30am 21.8 20.3 14.2 62 4.5 SW 15 24 8 13 1015.0 1014.7 0.0
25/10:00am 22.2 19.8 12.5 54 5.5 WSW 17 30 9 16 1015.3 1015.0 0.0
25/09:30am 22.4 20.4 11.5 50 6.1 WSW 13 17 7 9 1014.8 1014.5 0.0
25/09:00am 22.8 20.2 10.6 46 6.7 W 15 20 8 11 1014.4 1014.1 0.0
25/08:30am 22.7 21.1 11.7 49 6.2 NNW 11 13 6 7 1013.5 1013.1 0.0
25/08:00am 21.4 20.2 11.7 54 5.4 N 9 13 5 7 1013.2 1012.8 0.0
25/07:30am 20.1 19.3 11.6 58 4.7 NE 7 9 4 5 1012.7 1012.3 0.0
25/07:00am 19.6 18.3 11.1 58 4.7 NNE 9 13 5 7 1012.6 1012.2 0.0
25/06:30am 18.9 17.1 10.7 59 4.5 NE 11 13 6 7 1012.2 1011.8 0.0
25/06:00am 19.1 17.4 11.2 60 4.3 NNE 11 13 6 7 1012.5 1012.1 0.0
25/05:30am 17.6 15.8 10.7 64 3.7 NNE 11 13 6 7 1012.3 1011.9 0.0
25/05:00am 17.1 15.1 10.2 64 3.7 NNE 11 13 6 7 1012.3 1011.9 0.0
25/04:30am 17.7 15.8 10.6 63 3.8 NNE 11 13 6 7 1012.3 1011.9 0.0
25/04:00am 17.0 14.7 10.6 66 3.4 NE 13 15 7 8 1012.7 1012.3 0.0
25/03:30am 16.8 14.8 10.2 65 3.5 NNE 11 13 6 7 1012.8 1012.4 0.0
25/03:00am 17.7 15.4 10.3 62 4.0 NE 13 13 7 7 1013.0 1012.6 0.0
25/02:30am 18.6 16.4 10.9 61 4.2 NE 13 15 7 8 1013.0 1012.6 0.0
25/02:00am 17.9 16.0 10.5 62 4.0 NE 11 13 6 7 1013.5 1013.1 0.0
25/01:30am 18.6 17.1 10.4 59 4.4 ENE 9 11 5 6 1013.8 1013.4 0.0
25/01:00am 19.4 17.2 10.9 58 4.6 NE 13 13 7 7 1014.1 1013.8 0.0
25/12:30am 19.6 17.8 10.9 57 4.8 NE 11 11 6 6 1014.7 1014.4 0.0
25/12:00am 20.1 18.2 10.5 54 5.2 NNE 11 11 6 6 1015.0 1014.7 0.0
 
Date/Time
EST
Temp
°C
App
Temp
°C
Dew
Point
°C
Rel
Hum
%
Delta-T
°C
Wind Press
QNH
hPa
Press
MSL
hPa
Rain since
9am
mm
Dir  Spd
km/h
Gust
km/h
Spd
kts
Gust
kts
24/11:30pm 21.2 19.3 10.4 50 5.9 NNE 11 13 6 7 1015.2 1014.9 0.0
24/11:00pm 22.6 20.5 11.0 48 6.5 NNE 13 15 7 8 1015.5 1015.2 0.0
24/10:30pm 21.6 20.4 11.6 53 5.6 N 9 22 5 12 1015.9 1015.6 0.0
24/10:00pm 21.4 20.9 12.0 55 5.3 NNE 6 7 3 4 1016.0 1015.7 0.0
24/09:30pm 21.7 21.0 11.4 52 5.7 NNW 6 6 3 3 1015.9 1015.6 0.0
24/09:00pm 22.9 22.2 11.3 48 6.5 WNW 6 7 3 4 1015.9 1015.6 0.0
24/08:30pm 24.3 22.6 11.3 44 7.3 NE 11 13 6 7 1015.8 1015.5 0.0
24/08:00pm 24.1 22.5 11.4 45 7.2 ENE 11 11 6 6 1015.7 1015.4 0.0
24/07:30pm 24.0 23.1 11.3 45 7.2 ENE 7 9 4 5 1015.5 1015.2 0.0
24/07:00pm 25.1 24.3 10.9 41 8.0 N 6 7 3 4 1015.4 1015.1 0.0
24/06:30pm 26.3 25.3 10.9 38 8.7 N 7 9 4 5 1015.3 1015.0 0.0
24/06:00pm 26.5 24.8 9.8 35 9.3 NNE 9 11 5 6 1015.0 1014.7 0.0
24/05:30pm 27.8 26.0 9.6 32 10.2 N 9 11 5 6 1014.8 1014.5 0.0
24/05:00pm 28.8 27.0 9.5 30 10.8 NNE 9 13 5 7 1014.8 1014.5 0.0
24/04:30pm 29.5 27.7 9.6 29 11.2 N 9 15 5 8 1014.7 1014.4 0.0
24/04:00pm 29.2 27.0 9.3 29 11.1 N 11 24 6 13 1014.7 1014.4 0.0
24/03:30pm 30.0 28.0 10.0 29 11.4 NNW 11 20 6 11 1014.8 1014.5 0.0
24/03:00pm 29.6 28.0 10.2 30 11.0 NNW 9 20 5 11 1014.9 1014.6 0.0
24/02:30pm 28.9 27.6 10.1 31 10.6 WSW 7 19 4 10 1015.2 1014.9 0.0
24/02:00pm 29.9 28.4 10.5 30 11.1 N 9 20 5 11 1015.6 1015.3 0.0
24/01:30pm 29.6 26.9 10.2 30 11.0 NNE 15 26 8 14 1016.0 1015.7 0.0
24/01:00pm 28.7 26.0 10.4 32 10.4 NNW 15 24 8 13 1016.6 1016.3 0.0
24/12:30pm 28.8 26.5 10.5 32 10.4 N 13 26 7 14 1017.1 1016.8 0.0
24/12:00pm 28.3 25.9 11.4 35 9.7 N 15 28 8 15 1017.7 1017.4 0.0
24/11:30am 27.9 25.3 11.9 37 9.3 N 17 28 9 15 1018.3 1018.0 0.0
24/11:00am 27.5 24.6 12.3 39 8.8 NNE 19 30 10 16 1018.8 1018.5 0.0
24/10:30am 26.1 23.2 12.2 42 8.0 NNE 19 26 10 14 1019.1 1018.8 0.0
24/10:00am 25.1 22.8 13.0 47 7.0 NE 17 22 9 12 1019.5 1019.1 0.0
24/09:30am 23.7 21.4 13.0 51 6.2 NE 17 24 9 13 1019.7 1019.3 0.0
24/09:00am 22.2 20.1 13.5 57 5.0 ENE 17 20 9 11 1019.8 1019.4 0.0
24/08:30am 21.0 19.5 14.2 65 4.0 ENE 15 20 8 11 1019.7 1019.3 0.0
24/08:00am 20.1 19.5 14.5 70 3.3 E 11 15 6 8 1019.8 1019.4 0.0
24/07:30am 19.7 19.4 14.5 72 3.0 E 9 13 5 7 1019.6 1019.2 0.0
24/07:00am 19.4 18.7 14.4 73 2.9 E 11 15 6 8 1019.4 1019.0 0.0
24/06:30am 19.6 18.5 14.2 71 3.1 E 13 17 7 9 1019.0 1018.7 0.0
24/06:00am 19.7 18.6 14.3 71 3.1 E 13 19 7 10 1018.7 1018.4 0.0
24/05:30am 19.1 18.4 14.4 74 2.7 ESE 11 15 6 8 1018.6 1018.3 0.0
24/05:00am 18.7 18.5 14.6 77 2.4 E 9 13 5 7 1018.6 1018.3 0.0
24/04:30am 18.4 18.8 14.7 79 2.2 SE 6 6 3 3 1018.5 1018.2 0.0
24/04:00am 18.3 19.5 14.8 80 2.0 SE 2 7 1 4 1018.5 1018.2 0.0
24/03:30am 18.1 18.4 14.4 79 2.1 SE 6 6 3 3 1018.6 1018.3 0.0
24/03:00am 18.1 18.3 14.2 78 2.2 SE 6 7 3 4 1018.7 1018.4 0.0
24/02:30am 18.4 18.4 14.1 76 2.5 SE 7 9 4 5 1018.9 1018.6 0.0
24/02:00am 19.1 19.1 14.1 73 2.9 SSE 7 9 4 5 1019.3 1018.9 0.0
24/01:30am 19.1 18.7 14.1 73 2.9 SSE 9 13 5 7 1019.6 1019.2 0.0
24/01:00am 18.8 18.8 14.1 74 2.7 SSE 7 9 4 5 1019.7 1019.3 0.0
24/12:30am 19.2 18.8 14.2 73 2.9 SSE 9 11 5 6 1020.0 1019.6 0.0
24/12:00am 19.3 19.0 14.3 73 2.9 SSE 9 9 5 5 1020.3 1019.9 0.0
 
Date/Time
EST
Temp
°C
App
Temp
°C
Dew
Point
°C
Rel
Hum
%
Delta-T
°C
Wind Press
QNH
hPa
Press
MSL
hPa
Rain since
9am
mm
Dir  Spd
km/h
Gust
km/h
Spd
kts
Gust
kts
23/11:30pm 19.1 19.5 14.8 76 2.5 SSW 6 7 3 4 1020.6 1020.2 0.0
23/11:00pm 19.1 19.4 14.6 75 2.6 SSW 6 7 3 4 1020.7 1020.3 0.0
23/10:30pm 19.4 20.1 14.6 74 2.8 SSW 4 6 2 3 1020.9 1020.5 0.0
23/10:00pm 19.8 21.4 15.0 74 2.8 CALM 0 4 0 2 1021.0 1020.6 0.0
23/09:30pm 20.0 21.5 14.6 71 3.2 CALM 0 0 0 0 1021.2 1020.8 0.0
23/09:00pm 20.1 21.5 14.5 70 3.3 CALM 0 0 0 0 1021.1 1020.7 0.0
23/08:30pm 20.4 20.6 14.1 67 3.7 S 6 7 3 4 1021.1 1020.7 0.0
23/08:00pm 20.6 20.5 13.8 65 3.9 S 7 7 4 4 1020.8 1020.4 0.0
23/07:30pm 21.1 21.0 13.8 63 4.2 SSE 7 9 4 5 1020.5 1020.1 0.0
23/07:00pm 21.5 21.5 13.7 61 4.5 SSE 6 7 3 4 1020.4 1020.0 0.0
23/06:30pm 21.8 21.5 13.4 59 4.9 SSE 7 9 4 5 1020.1 1019.7 0.0
23/06:00pm 22.5 22.1 13.0 55 5.5 SE 7 9 4 5 1020.0 1019.6 0.0
23/05:30pm 23.2 22.0 12.8 52 6.0 SE 11 15 6 8 1019.9 1019.5 0.0
23/05:00pm 23.7 21.7 12.7 50 6.3 ESE 15 20 8 11 1019.7 1019.3 0.0
23/04:30pm 24.1 22.5 12.7 49 6.6 E 13 17 7 9 1019.7 1019.3 0.0
23/04:00pm 24.4 23.4 13.3 50 6.5 E 11 15 6 8 1019.6 1019.2 0.0
23/03:30pm 24.2 23.4 14.0 53 6.0 E 11 15 6 8 1019.7 1019.3 0.0
23/03:00pm 24.2 23.2 14.6 55 5.7 SE 13 19 7 10 1019.8 1019.4 0.0
23/02:30pm 24.0 23.3 14.4 55 5.7 SE 11 17 6 9 1019.8 1019.4 0.0
23/02:00pm 24.0 23.6 15.2 58 5.3 ESE 11 17 6 9 1020.1 1019.7 0.0
23/01:30pm 23.9 23.1 15.1 58 5.3 E 13 17 7 9 1020.3 1019.9 0.0
23/01:00pm 23.0 23.0 15.3 62 4.6 E 9 15 5 8 1020.8 1020.4 0.0
23/12:30pm 22.7 22.5 15.8 65 4.2 E 11 17 6 9 1021.1 1020.7 0.0
23/12:00pm 21.6 20.4 15.0 66 3.9 E 15 20 8 11 1021.4 1021.0 0.0
23/11:30am 21.7 20.2 15.3 67 3.8 E 17 20 9 11 1021.7 1021.3 0.0
23/11:00am 20.9 19.2 14.8 68 3.6 ESE 17 22 9 12 1022.2 1021.9 0.0
23/10:30am 20.6 18.9 14.7 69 3.5 ESE 17 19 9 10 1022.5 1022.2 0.0
23/10:00am 20.0 18.9 14.4 70 3.3 ESE 13 20 7 11 1022.7 1022.4 0.0
23/09:30am 19.9 18.4 14.3 70 3.3 E 15 19 8 10 1022.7 1022.4 0.0
23/09:00am 19.6 18.1 14.2 71 3.1 ESE 15 19 8 10 1022.5 1022.2 0.0
23/08:30am 19.3 18.2 14.3 73 2.9 ESE 13 17 7 9 1022.4 1022.1 0.0
23/08:00am 19.0 17.8 14.1 73 2.8 ESE 13 17 7 9 1022.2 1021.9 0.0
23/07:30am 18.7 17.6 14.2 75 2.6 ESE 13 15 7 8 1021.9 1021.5 0.0
23/07:00am 18.6 18.2 14.1 75 2.6 ESE 9 13 5 7 1021.8 1021.4 0.0
23/06:30am 18.4 17.3 14.3 77 2.4 SE 13 17 7 9 1021.4 1021.0 0.0
23/06:00am 18.4 17.0 14.5 78 2.3 SE 15 17 8 9 1021.2 1020.8 0.0
23/05:30am 18.4 17.1 14.7 79 2.2 SE 15 17 8 9 1021.1 1020.7 0.0
23/05:00am 18.5 18.0 14.8 79 2.2 SE 11 13 6 7 1021.2 1020.8 0.0
23/04:30am 18.6 18.8 14.7 78 2.3 SSE 7 9 4 5 1020.8 1020.4 0.0
23/04:00am 18.7 18.1 14.6 77 2.4 SSE 11 13 6 7 1020.6 1020.2 0.0
23/03:30am 18.8 18.6 14.7 77 2.4 ENE 9 11 5 6 1020.7 1020.3 0.0
23/03:00am 19.0 18.4 14.5 75 2.6 E 11 15 6 8 1020.7 1020.3 0.0
23/02:30am 19.2 18.9 14.5 74 2.7 E 9 15 5 8 1020.9 1020.5 0.0
23/02:00am 19.3 18.3 14.6 74 2.7 E 13 19 7 10 1020.9 1020.5 0.0
23/01:30am 19.6 18.2 14.4 72 3.0 E 15 22 8 12 1021.0 1020.6 0.0
23/01:00am 19.7 18.0 14.7 73 2.9 E 17 22 9 12 1021.1 1020.7 0.0
23/12:30am 19.7 18.1 14.9 74 2.8 E 17 26 9 14 1021.5 1021.1 0.0
23/12:00am 19.7 18.2 15.4 76 2.5 E 17 24 9 13 1021.7 1021.3 0.0
 
Date/Time
EST
Temp
°C
App
Temp
°C
Dew
Point
°C
Rel
Hum
%
Delta-T
°C
Wind Press
QNH
hPa
Press
MSL
hPa
Rain since
9am
mm
Dir  Spd
km/h
Gust
km/h
Spd
kts
Gust
kts
22/11:30pm 19.7 18.6 15.4 76 2.6 E 15 20 8 11 1021.8 1021.4 0.0
22/11:00pm 20.1 18.5 15.1 73 2.9 E 17 24 9 13 1021.9 1021.5 0.0
22/10:30pm 20.3 18.4 15.1 72 3.1 E 19 26 10 14 1022.0 1021.7 0.0
22/10:00pm 20.4 18.4 15.0 71 3.2 ESE 19 26 10 14 1022.0 1021.7 0.0
22/09:30pm 20.3 17.7 14.9 71 3.2 ESE 22 30 12 16 1022.0 1021.7 0.0
22/09:00pm 20.4 18.3 15.2 72 3.1 ESE 20 32 11 17 1021.9 1021.5 0.0
22/08:30pm 20.1 17.1 15.9 77 2.5 ESE 26 32 14 17 1021.6 1021.2 0.0
22/08:00pm 20.4 19.1 15.8 75 2.7 ESE 17 20 9 11 1021.6 1021.2 0.0
22/07:30pm 20.3 19.0 15.9 76 2.6 ESE 17 20 9 11 1021.4 1021.0 0.0
22/07:00pm 20.4 18.8 16.0 76 2.6 ESE 19 24 10 13 1021.3 1020.9 0.0
22/06:30pm 20.4 19.2 16.2 77 2.5 ESE 17 20 9 11 1021.2 1020.8 0.0
22/06:00pm 20.5 20.1 16.1 76 2.6 E 13 20 7 11 1021.1 1020.7 0.0
22/05:30pm 20.9 20.0 15.9 73 3.0 E 15 19 8 10 1021.1 1020.7 0.0
22/05:00pm 21.3 21.3 16.3 73 3.0 ESE 11 13 6 7 1020.9 1020.5 0.0
22/04:30pm 21.3 21.3 16.3 73 3.0 ESE 11 13 6 7 1020.9 1020.5 0.0
22/04:00pm 21.3 20.8 15.8 71 3.3 ESE 13 15 7 8 1020.8 1020.4 0.0
22/03:30pm 21.3 21.1 15.8 71 3.3 ESE 11 15 6 8 1020.7 1020.3 0.0
22/03:00pm 21.4 20.8 15.7 70 3.4 ESE 13 15 7 8 1020.8 1020.4 0.0
22/02:30pm 21.2 20.2 15.5 70 3.4 ESE 15 19 8 10 1021.0 1020.6 0.0
22/02:00pm 20.8 20.5 15.4 71 3.2 ESE 11 15 6 8 1021.2 1020.8 0.0
22/01:30pm 20.5 19.8 15.3 72 3.1 E 13 17 7 9 1021.5 1021.1 0.0
22/01:00pm 20.3 19.6 15.5 74 2.8 E 13 15 7 8 1021.8 1021.4 0.0

Other Formats:

Comma delimited format used in spreadsheet applications
http://www.bom.gov.au/fwo/IDN60801/IDN60801.94703.axf

JavaScript Object Notation format (JSON) in row-major order
http://www.bom.gov.au/fwo/IDN60801/IDN60801.94703.json